Terminal Aerodrome Forecast
Issued by NWS

Home | Current Version | Previous Version | Text Only | Print | Product List | Glossary On
Versions: 1 2 3 4 5 6 7 8 9 10 11 12 13 14 15 16 17 18 19 20 21 22 23 24 25 26 27 28 29 30 31 32 33 34
000
FTUS41 KRNK 040749 AAA
TAFBCB
TAF AMD
KBCB 040749Z 0408/0506 00000KT 2SM BR VV007
      TEMPO 0408/0410 1/2SM FG BKN002
     FM041000 00000KT 1/2SM FG VV002
     FM041330 VRB03KT P6SM SCT050 BKN080
     FM041900 05005KT 5SM SHRA VCTS BKN045CB
     FM042300 05004KT P6SM VCSH BKN050
     FM050200 00000KT P6SM BKN100=

USA.gov is the U.S. government's official web portal to all federal, state and local government web resources and services.